Nearby METAR Reports

 

EDNY - Friedrichshafen, Germany
Distance from station: O 31km
aktuell: 31.10.2014 07:20
Fog
Fog
 Wind von varies
Wind: varies 6 km/h
Temperatur: 5°C
Taupunkt: 3°C
Luftfeuchte: 87%
Luftdruck: 1027 hPa
Zusammenfassung: Fog
Visibility: 0 km
2014/10/31 06:20 EDNY 310620Z VRB03KT 0400 R24/0700N FG VV/// 05/03 Q1027 RMK D
LSZR - Rheineck/Altenrh, Switzerland
Distance from station: SO 42km
aktuell: 31.10.2014 07:20
stark bewölkt
stark bewölkt
 Wind von varies
Wind: varies 4 km/h
Temperatur: 5°C
Taupunkt: 5°C
Luftfeuchte: 100%
Luftdruck: 1026 hPa
Clouds: stark bewölkt
Visibility: 10 km
Cloud details: stark bewölkt 152 m
2014/10/31 06:20 LSZR 310620Z VRB02KT 9999 BKN005 05/05 Q1026 NOSIG RMK B
LSZH - Zurich-Kloten (a, Switzerland
Distance from station: WSW 49km
aktuell: 31.10.2014 07:20
Fog, geschlossene Wolkendecke
Fog, geschlossene Wolkendecke
 Wind von N
Wind: N 6 km/h
Temperatur: 5°C
Taupunkt: 5°C
Luftfeuchte: 100%
Luftdruck: 1027 hPa
Zusammenfassung: Fog
Clouds: geschlossene Wolkendecke
Visibility: 0 km
Cloud details: geschlossene Wolkendecke 30 m
2014/10/31 06:20 LSZH 310620Z 35003KT 300V020 0250 R14/0400N R16/0450N R28/0400D R34/0400N FG VV001 05/05 Q1027 TEMPO 0200
 
EDTD - Donaueschingen, Germany
Distance from station: NW 53km
aktuell: 30.04.2014 18:20
NOT Current
sehr leichter Niederschlag, geschlossene Wolkendecke
sehr leichter Niederschlag, geschlossene Wolkendecke
 Wind von SSW
Wind: SSW 9 km/h
Temperatur: 10°C
gefühlte Temperatur: 9°C
Taupunkt: 10°C
Luftfeuchte: 100%
Luftdruck: 1011 hPa
Zusammenfassung: sehr leichter Niederschlag
Clouds: geschlossene Wolkendecke
Visibility: 9 km
Cloud details: stark bewölkt 213 m
geschlossene Wolkendecke 335 m
2014/04/30 16:20 EDTD 301620Z 20005KT 9000 -RA BKN007 OVC011 10/10 Q1011 LAST ?
ETGZ - Messstetten, Germany
Distance from station: N 54km
aktuell: 30.09.2013 14:20
NOT Current
geschlossene Wolkendecke
geschlossene Wolkendecke
 Wind von varies
Wind: varies 4 km/h
Temperatur: 8°C
Taupunkt: 7°C
Luftfeuchte: 93%
Luftdruck: 1007 hPa
Clouds: geschlossene Wolkendecke
Visibility: 10 km
Cloud details: geschlossene Wolkendecke 213 m
2013/09/30 12:20 ETGZ 301220Z VRB02KT 9999 OVC007 08/07 Q1007 GRN
LOIH - Hohenems-Dornbir, Austria
Distance from station: SO 57km
aktuell: 30.10.2014 17:00
NOT Current
stark bewölkt
stark bewölkt
 Wind von calm
Wind: Windstill
Temperatur: 14°C
Taupunkt: 7°C
Luftfeuchte: 63%
Luftdruck: 1024 hPa
Clouds: stark bewölkt
Cloud details: Few Clouds 3048 m
stark bewölkt 9144 m
2014/10/30 16:00 LOIH 301600Z 00000KT 35KM FEW100AC BKN300CI 14/07 Q1024 RMK BKN
 
ETHL - Laupheim (ger-Ar, Germany
Distance from station: NO 84km
aktuell: 31.10.2014 07:20
Fog, geschlossene Wolkendecke
Fog, geschlossene Wolkendecke
 Wind von varies
Wind: varies 2 km/h
Temperatur: 6°C
Taupunkt: 5°C
Luftfeuchte: 93%
Luftdruck: 1026 hPa
Zusammenfassung: Fog
Clouds: geschlossene Wolkendecke
Visibility: 0 km
Cloud details: geschlossene Wolkendecke 30 m
2014/10/31 06:20 ETHL 310620Z VRB01KT 0100 R27/0650N FG VV001 06/05 Q1026 RED RED
EDJA - Memmingen Allgau, Germany
Distance from station: ONO 90km
aktuell: 31.10.2014 07:20
Patches of fog, teilweise bewölkt
Patches of fog, teilweise bewölkt
 Wind von calm
Wind: Windstill
Temperatur: 2°C
Taupunkt: 2°C
Luftfeuchte: 100%
Luftdruck: 1026 hPa
Zusammenfassung: Patches of Fog
Clouds: teilweise bewölkt
Visibility: 5 km
2014/10/31 06:20 EDJA 310620Z 00000KT 5000 BCFG NSC 02/02 Q1026
LSME - Emmen, Switzerland
Distance from station: SW 90km
aktuell: 31.10.2014 07:23
Fog, geschlossene Wolkendecke
Fog, geschlossene Wolkendecke
 Wind von calm
Wind: Windstill
Temperatur: 5°C
Taupunkt: 5°C
Luftfeuchte: 100%
Luftdruck: 1027 hPa
Zusammenfassung: Fog
Clouds: geschlossene Wolkendecke
Visibility: 0 km
Cloud details: geschlossene Wolkendecke 61 m
2014/10/31 06:23 LSME 310623Z 00000KT 0350 R04/0450N R22/0800V1500U FG OVC002 05/05 Q1027 RMK RED
 
LSZC - Buochs, Switzerland
Distance from station: SSW 98km
aktuell: 31.10.2014 07:20
geschlossene Wolkendecke
geschlossene Wolkendecke
 Wind von varies
Wind: varies 2 km/h
Temperatur: 6°C
Taupunkt: 5°C
Luftfeuchte: 93%
Luftdruck: 1026 hPa
Clouds: geschlossene Wolkendecke
Visibility: 10 km
Cloud details: geschlossene Wolkendecke 213 m
2014/10/31 06:20 LSZC 310620Z AUTO VRB01KT 9999 OVC007 06/05 Q1026